sensor_id;sensor_type;location;lat;lon;timestamp;pressure;altitude;pressure_sealevel;temperature;humidity
36520;BME280;40269;46.742;9.778;2023-02-18T00:00:27;86665.92;;;1.44;46.60
36520;BME280;40269;46.742;9.778;2023-02-18T00:02:55;86655.92;;;2.39;45.30
36520;BME280;40269;46.742;9.778;2023-02-18T00:05:21;86654.52;;;1.65;45.02
36520;BME280;40269;46.742;9.778;2023-02-18T00:07:49;86658.26;;;0.85;46.89
36520;BME280;40269;46.742;9.778;2023-02-18T00:10:17;86659.46;;;-0.72;49.99
36520;BME280;40269;46.742;9.778;2023-02-18T00:12:44;86651.53;;;2.03;44.99
36520;BME280;40269;46.742;9.778;2023-02-18T00:15:12;86654.72;;;-2.09;53.30
36520;BME280;40269;46.742;9.778;2023-02-18T00:17:39;86648.74;;;-0.72;52.95
36520;BME280;40269;46.742;9.778;2023-02-18T00:20:06;86649.39;;;-1.70;54.56
36520;BME280;40269;46.742;9.778;2023-02-18T00:22:33;86651.17;;;-0.13;49.37
36520;BME280;40269;46.742;9.778;2023-02-18T00:25:01;86649.88;;;-0.56;50.40
36520;BME280;40269;46.742;9.778;2023-02-18T00:27:28;86648.55;;;-0.53;50.60
36520;BME280;40269;46.742;9.778;2023-02-18T00:29:56;86642.09;;;0.33;48.87
36520;BME280;40269;46.742;9.778;2023-02-18T00:32:23;86638.47;;;2.62;44.27
36520;BME280;40269;46.742;9.778;2023-02-18T00:34:50;86635.99;;;3.02;43.10
36520;BME280;40269;46.742;9.778;2023-02-18T00:37:17;86635.62;;;3.06;42.26
36520;BME280;40269;46.742;9.778;2023-02-18T00:39:43;86638.71;;;0.79;46.32
36520;BME280;40269;46.742;9.778;2023-02-18T00:42:10;86639.29;;;-1.34;50.87
36520;BME280;40269;46.742;9.778;2023-02-18T00:44:37;86638.87;;;-2.91;55.10
36520;BME280;40269;46.742;9.778;2023-02-18T00:47:03;86637.04;;;0.26;49.60
36520;BME280;40269;46.742;9.778;2023-02-18T00:49:30;86636.00;;;0.04;49.87
36520;BME280;40269;46.742;9.778;2023-02-18T00:51:57;86633.09;;;-1.16;50.85
36520;BME280;40269;46.742;9.778;2023-02-18T00:54:23;86630.72;;;-1.26;50.58
36520;BME280;40269;46.742;9.778;2023-02-18T00:56:50;86632.32;;;-1.75;54.02
36520;BME280;40269;46.742;9.778;2023-02-18T00:59:17;86627.82;;;-1.58;51.09
36520;BME280;40269;46.742;9.778;2023-02-18T01:01:44;86629.20;;;-2.53;55.05
36520;BME280;40269;46.742;9.778;2023-02-18T01:04:11;86627.11;;;-2.99;56.07
36520;BME280;40269;46.742;9.778;2023-02-18T01:06:38;86624.47;;;-0.72;51.76
36520;BME280;40269;46.742;9.778;2023-02-18T01:09:05;86623.80;;;-1.20;50.43
36520;BME280;40269;46.742;9.778;2023-02-18T01:11:32;86628.28;;;0.78;48.32
36520;BME280;40269;46.742;9.778;2023-02-18T01:14:00;86623.23;;;2.27;45.22
36520;BME280;40269;46.742;9.778;2023-02-18T01:16:27;86628.91;;;0.98;47.17
36520;BME280;40269;46.742;9.778;2023-02-18T01:18:54;86624.16;;;2.66;43.94
36520;BME280;40269;46.742;9.778;2023-02-18T01:21:20;86625.56;;;2.13;44.55
36520;BME280;40269;46.742;9.778;2023-02-18T01:23:49;86635.00;;;-3.56;57.23
36520;BME280;40269;46.742;9.778;2023-02-18T01:26:16;86639.31;;;-4.22;62.04
36520;BME280;40269;46.742;9.778;2023-02-18T01:28:43;86633.89;;;-1.88;55.33
36520;BME280;40269;46.742;9.778;2023-02-18T01:31:11;86628.62;;;-0.78;51.87
36520;BME280;40269;46.742;9.778;2023-02-18T01:33:38;86628.93;;;-0.11;50.30
36520;BME280;40269;46.742;9.778;2023-02-18T01:36:06;86625.96;;;1.01;47.09
36520;BME280;40269;46.742;9.778;2023-02-18T01:38:34;86626.88;;;0.65;47.74
36520;BME280;40269;46.742;9.778;2023-02-18T01:41:01;86623.65;;;-1.34;51.96
36520;BME280;40269;46.742;9.778;2023-02-18T01:43:29;86623.33;;;-2.23;54.82
36520;BME280;40269;46.742;9.778;2023-02-18T01:46:01;86619.46;;;0.82;47.74
36520;BME280;40269;46.742;9.778;2023-02-18T01:48:32;86617.44;;;1.85;45.70
36520;BME280;40269;46.742;9.778;2023-02-18T01:51:04;86612.73;;;1.84;44.41
36520;BME280;40269;46.742;9.778;2023-02-18T01:53:40;86607.77;;;2.38;43.51
36520;BME280;40269;46.742;9.778;2023-02-18T01:56:12;86617.46;;;-0.76;49.25
36520;BME280;40269;46.742;9.778;2023-02-18T01:58:41;86614.65;;;0.94;45.67
36520;BME280;40269;46.742;9.778;2023-02-18T02:01:09;86610.64;;;-1.46;50.32
36520;BME280;40269;46.742;9.778;2023-02-18T02:03:36;86608.40;;;1.25;46.39
36520;BME280;40269;46.742;9.778;2023-02-18T02:06:09;86606.12;;;0.69;46.35
36520;BME280;40269;46.742;9.778;2023-02-18T02:08:38;86604.91;;;-1.58;50.49
36520;BME280;40269;46.742;9.778;2023-02-18T02:11:15;86599.17;;;-1.43;51.42
36520;BME280;40269;46.742;9.778;2023-02-18T02:14:05;86601.58;;;-0.08;48.31
36520;BME280;40269;46.742;9.778;2023-02-18T02:16:39;86600.63;;;0.60;47.52
36520;BME280;40269;46.742;9.778;2023-02-18T02:19:32;86597.48;;;-1.40;52.22
36520;BME280;40269;46.742;9.778;2023-02-18T02:22:24;86597.03;;;-1.98;53.16
36520;BME280;40269;46.742;9.778;2023-02-18T02:25:06;86591.76;;;-1.28;51.24
36520;BME280;40269;46.742;9.778;2023-02-18T02:27:55;86592.13;;;-1.74;53.71
36520;BME280;40269;46.742;9.778;2023-02-18T02:33:26;86590.84;;;0.34;48.65
36520;BME280;40269;46.742;9.778;2023-02-18T02:35:59;86588.41;;;-0.84;49.93
36520;BME280;40269;46.742;9.778;2023-02-18T02:38:32;86591.26;;;-0.76;49.92
36520;BME280;40269;46.742;9.778;2023-02-18T02:41:09;86591.19;;;-2.21;51.90
36520;BME280;40269;46.742;9.778;2023-02-18T02:43:46;86587.93;;;0.54;47.85
36520;BME280;40269;46.742;9.778;2023-02-18T02:46:20;86590.15;;;-1.05;48.40
36520;BME280;40269;46.742;9.778;2023-02-18T02:48:54;86588.50;;;-0.90;49.41
36520;BME280;40269;46.742;9.778;2023-02-18T02:51:28;86585.06;;;-0.59;48.35
36520;BME280;40269;46.742;9.778;2023-02-18T02:54:09;86584.31;;;-1.76;50.99
36520;BME280;40269;46.742;9.778;2023-02-18T02:56:37;86583.20;;;-2.11;53.15
36520;BME280;40269;46.742;9.778;2023-02-18T02:59:08;86579.44;;;-0.65;49.89
36520;BME280;40269;46.742;9.778;2023-02-18T03:01:45;86580.86;;;-2.81;53.47
36520;BME280;40269;46.742;9.778;2023-02-18T03:04:30;86580.35;;;-0.94;50.92
36520;BME280;40269;46.742;9.778;2023-02-18T03:07:46;86582.84;;;-2.47;53.11
36520;BME280;40269;46.742;9.778;2023-02-18T03:10:30;86584.01;;;-0.07;47.84
36520;BME280;40269;46.742;9.778;2023-02-18T03:13:08;86578.81;;;2.04;44.56
36520;BME280;40269;46.742;9.778;2023-02-18T03:15:42;86580.76;;;1.68;44.43
36520;BME280;40269;46.742;9.778;2023-02-18T03:18:16;86588.43;;;0.83;45.01
36520;BME280;40269;46.742;9.778;2023-02-18T03:20:50;86588.58;;;0.85;45.90
36520;BME280;40269;46.742;9.778;2023-02-18T03:23:26;86591.49;;;-0.27;47.68
36520;BME280;40269;46.742;9.778;2023-02-18T03:25:55;86590.00;;;1.52;44.64
36520;BME280;40269;46.742;9.778;2023-02-18T03:28:26;86589.54;;;0.66;45.78
36520;BME280;40269;46.742;9.778;2023-02-18T03:30:58;86589.37;;;-1.43;50.01
36520;BME280;40269;46.742;9.778;2023-02-18T03:33:30;86589.76;;;-0.90;49.32
36520;BME280;40269;46.742;9.778;2023-02-18T03:36:00;86590.40;;;-0.45;48.80
36520;BME280;40269;46.742;9.778;2023-02-18T03:38:32;86593.51;;;0.65;45.62
36520;BME280;40269;46.742;9.778;2023-02-18T03:41:01;86594.14;;;0.95;44.79
36520;BME280;40269;46.742;9.778;2023-02-18T03:43:28;86598.83;;;-2.89;51.93
36520;BME280;40269;46.742;9.778;2023-02-18T03:45:55;86595.21;;;0.12;47.16
36520;BME280;40269;46.742;9.778;2023-02-18T03:48:23;86594.57;;;1.06;45.50
36520;BME280;40269;46.742;9.778;2023-02-18T03:50:49;86594.06;;;0.51;46.01
36520;BME280;40269;46.742;9.778;2023-02-18T03:53:16;86590.02;;;-2.08;49.35
36520;BME280;40269;46.742;9.778;2023-02-18T03:55:43;86585.33;;;-1.08;48.14
36520;BME280;40269;46.742;9.778;2023-02-18T03:58:10;86590.28;;;-1.61;51.13
36520;BME280;40269;46.742;9.778;2023-02-18T04:00:36;86590.42;;;-2.96;54.62
36520;BME280;40269;46.742;9.778;2023-02-18T04:03:03;86587.89;;;-4.22;57.14
36520;BME280;40269;46.742;9.778;2023-02-18T04:05:30;86588.40;;;-3.34;56.62
36520;BME280;40269;46.742;9.778;2023-02-18T04:07:57;86594.30;;;-4.19;58.74
36520;BME280;40269;46.742;9.778;2023-02-18T04:10:23;86592.48;;;-2.97;55.66
36520;BME280;40269;46.742;9.778;2023-02-18T04:12:50;86587.81;;;-1.96;52.19
36520;BME280;40269;46.742;9.778;2023-02-18T04:15:17;86586.73;;;-0.19;48.33
36520;BME280;40269;46.742;9.778;2023-02-18T04:17:44;86581.87;;;-2.07;51.27
36520;BME280;40269;46.742;9.778;2023-02-18T04:20:11;86584.70;;;-1.38;49.99
36520;BME280;40269;46.742;9.778;2023-02-18T04:22:38;86586.05;;;0.16;47.45
36520;BME280;40269;46.742;9.778;2023-02-18T04:25:06;86584.31;;;0.78;45.60
36520;BME280;40269;46.742;9.778;2023-02-18T04:27:33;86582.76;;;0.68;45.34
36520;BME280;40269;46.742;9.778;2023-02-18T04:30:01;86580.98;;;-1.92;50.87
36520;BME280;40269;46.742;9.778;2023-02-18T04:32:28;86578.11;;;-0.49;47.99
36520;BME280;40269;46.742;9.778;2023-02-18T04:34:54;86577.42;;;-3.85;56.87
36520;BME280;40269;46.742;9.778;2023-02-18T04:37:21;86580.56;;;-2.74;54.72
36520;BME280;40269;46.742;9.778;2023-02-18T04:39:48;86576.53;;;-2.25;52.40
36520;BME280;40269;46.742;9.778;2023-02-18T04:42:15;86573.73;;;-1.76;52.21
36520;BME280;40269;46.742;9.778;2023-02-18T04:44:42;86570.88;;;-2.29;53.18
36520;BME280;40269;46.742;9.778;2023-02-18T04:47:08;86567.52;;;-0.08;48.01
36520;BME280;40269;46.742;9.778;2023-02-18T04:49:35;86566.17;;;-1.17;48.78
36520;BME280;40269;46.742;9.778;2023-02-18T04:52:03;86568.29;;;-0.85;48.70
36520;BME280;40269;46.742;9.778;2023-02-18T04:54:30;86565.40;;;0.72;45.54
36520;BME280;40269;46.742;9.778;2023-02-18T04:56:57;86566.43;;;0.80;45.09
36520;BME280;40269;46.742;9.778;2023-02-18T04:59:25;86568.49;;;-0.07;46.66
36520;BME280;40269;46.742;9.778;2023-02-18T05:01:52;86571.93;;;-2.10;51.30
36520;BME280;40269;46.742;9.778;2023-02-18T05:04:19;86577.92;;;-5.07;58.67
36520;BME280;40269;46.742;9.778;2023-02-18T05:06:46;86571.24;;;-3.95;57.51
36520;BME280;40269;46.742;9.778;2023-02-18T05:09:14;86570.13;;;-2.51;54.52
36520;BME280;40269;46.742;9.778;2023-02-18T05:11:41;86570.75;;;-2.82;54.46
36520;BME280;40269;46.742;9.778;2023-02-18T05:14:08;86571.68;;;-2.06;52.55
36520;BME280;40269;46.742;9.778;2023-02-18T05:16:36;86572.72;;;-2.63;53.22
36520;BME280;40269;46.742;9.778;2023-02-18T05:19:03;86570.29;;;-1.45;50.06
36520;BME280;40269;46.742;9.778;2023-02-18T05:21:29;86570.88;;;-0.99;49.23
36520;BME280;40269;46.742;9.778;2023-02-18T05:23:56;86571.37;;;-0.60;48.21
36520;BME280;40269;46.742;9.778;2023-02-18T05:26:23;86568.06;;;-2.87;52.92
36520;BME280;40269;46.742;9.778;2023-02-18T05:28:49;86567.08;;;-1.96;50.57
36520;BME280;40269;46.742;9.778;2023-02-18T05:31:16;86567.25;;;-0.15;47.41
36520;BME280;40269;46.742;9.778;2023-02-18T05:33:43;86569.74;;;-3.30;53.70
36520;BME280;40269;46.742;9.778;2023-02-18T05:36:10;86566.10;;;-1.26;51.24
36520;BME280;40269;46.742;9.778;2023-02-18T05:38:37;86568.67;;;-1.90;51.76
36520;BME280;40269;46.742;9.778;2023-02-18T05:41:03;86570.88;;;-2.79;53.30
36520;BME280;40269;46.742;9.778;2023-02-18T05:43:30;86573.93;;;-3.18;54.75
36520;BME280;40269;46.742;9.778;2023-02-18T05:45:57;86577.18;;;-3.56;55.45
36520;BME280;40269;46.742;9.778;2023-02-18T05:48:24;86575.74;;;-1.91;51.57
36520;BME280;40269;46.742;9.778;2023-02-18T05:50:53;86577.90;;;-1.37;49.64
36520;BME280;40269;46.742;9.778;2023-02-18T05:53:20;86578.61;;;-2.62;53.70
36520;BME280;40269;46.742;9.778;2023-02-18T05:55:47;86582.77;;;-2.93;54.51
36520;BME280;40269;46.742;9.778;2023-02-18T05:58:13;86579.80;;;-0.95;49.62
36520;BME280;40269;46.742;9.778;2023-02-18T06:00:40;86585.25;;;-2.43;51.78
36520;BME280;40269;46.742;9.778;2023-02-18T06:03:07;86589.58;;;-4.52;57.25
36520;BME280;40269;46.742;9.778;2023-02-18T06:05:34;86586.17;;;-3.25;54.82
36520;BME280;40269;46.742;9.778;2023-02-18T06:08:01;86579.09;;;-2.37;53.12
36520;BME280;40269;46.742;9.778;2023-02-18T06:10:28;86577.29;;;-2.61;52.44
36520;BME280;40269;46.742;9.778;2023-02-18T06:12:55;86576.72;;;-4.23;57.01
36520;BME280;40269;46.742;9.778;2023-02-18T06:15:22;86574.67;;;-3.87;57.71
36520;BME280;40269;46.742;9.778;2023-02-18T06:17:48;86575.32;;;-4.67;59.19
36520;BME280;40269;46.742;9.778;2023-02-18T06:20:15;86573.32;;;-5.09;61.10
36520;BME280;40269;46.742;9.778;2023-02-18T06:22:42;86576.53;;;-5.50;65.58
36520;BME280;40269;46.742;9.778;2023-02-18T06:25:09;86572.86;;;-4.39;61.11
36520;BME280;40269;46.742;9.778;2023-02-18T06:27:36;86570.19;;;-4.98;61.38
36520;BME280;40269;46.742;9.778;2023-02-18T06:30:03;86567.15;;;-4.13;59.29
36520;BME280;40269;46.742;9.778;2023-02-18T06:32:30;86560.83;;;-2.04;54.00
36520;BME280;40269;46.742;9.778;2023-02-18T06:34:57;86559.76;;;-1.64;52.02
36520;BME280;40269;46.742;9.778;2023-02-18T06:37:23;86554.55;;;-2.04;51.97
36520;BME280;40269;46.742;9.778;2023-02-18T06:39:50;86554.27;;;-2.29;52.45
36520;BME280;40269;46.742;9.778;2023-02-18T06:42:17;86553.28;;;-3.47;55.73
36520;BME280;40269;46.742;9.778;2023-02-18T06:44:44;86548.83;;;-0.81;49.28
36520;BME280;40269;46.742;9.778;2023-02-18T06:47:11;86547.88;;;-1.53;50.01
36520;BME280;40269;46.742;9.778;2023-02-18T06:49:37;86552.45;;;0.36;46.13
36520;BME280;40269;46.742;9.778;2023-02-18T06:52:04;86551.16;;;0.49;45.08
36520;BME280;40269;46.742;9.778;2023-02-18T06:54:32;86556.10;;;-0.72;47.99
36520;BME280;40269;46.742;9.778;2023-02-18T06:56:59;86553.62;;;-2.08;50.95
36520;BME280;40269;46.742;9.778;2023-02-18T06:59:26;86555.95;;;-1.41;49.40
36520;BME280;40269;46.742;9.778;2023-02-18T07:01:53;86557.28;;;-1.97;52.18
36520;BME280;40269;46.742;9.778;2023-02-18T07:04:20;86553.24;;;-1.44;49.16
36520;BME280;40269;46.742;9.778;2023-02-18T07:06:46;86554.58;;;0.00;46.28
36520;BME280;40269;46.742;9.778;2023-02-18T07:09:13;86551.86;;;1.29;44.33
36520;BME280;40269;46.742;9.778;2023-02-18T07:11:40;86547.46;;;-1.27;48.80
36520;BME280;40269;46.742;9.778;2023-02-18T07:14:07;86548.72;;;-0.89;49.51
36520;BME280;40269;46.742;9.778;2023-02-18T07:16:33;86547.74;;;-1.84;50.76
36520;BME280;40269;46.742;9.778;2023-02-18T07:19:00;86550.72;;;-3.59;53.73
36520;BME280;40269;46.742;9.778;2023-02-18T07:21:28;86553.10;;;-2.56;51.64
36520;BME280;40269;46.742;9.778;2023-02-18T07:23:55;86546.86;;;-1.95;52.32
36520;BME280;40269;46.742;9.778;2023-02-18T07:26:21;86547.09;;;-2.16;52.21
36520;BME280;40269;46.742;9.778;2023-02-18T07:28:48;86547.92;;;-3.05;54.24
36520;BME280;40269;46.742;9.778;2023-02-18T07:31:15;86547.88;;;-0.67;49.20
36520;BME280;40269;46.742;9.778;2023-02-18T07:33:42;86546.36;;;-2.85;55.07
36520;BME280;40269;46.742;9.778;2023-02-18T07:36:08;86541.19;;;-2.07;52.12
36520;BME280;40269;46.742;9.778;2023-02-18T07:38:36;86543.92;;;-2.11;52.35
36520;BME280;40269;46.742;9.778;2023-02-18T07:41:03;86540.84;;;-2.07;53.53
36520;BME280;40269;46.742;9.778;2023-02-18T07:43:30;86544.64;;;-1.75;52.10
36520;BME280;40269;46.742;9.778;2023-02-18T07:45:57;86545.03;;;-4.04;57.46
36520;BME280;40269;46.742;9.778;2023-02-18T07:48:24;86542.75;;;-3.88;58.27
36520;BME280;40269;46.742;9.778;2023-02-18T07:50:50;86542.19;;;-2.20;53.38
36520;BME280;40269;46.742;9.778;2023-02-18T07:53:17;86537.35;;;-1.98;52.23
36520;BME280;40269;46.742;9.778;2023-02-18T07:55:44;86536.61;;;-2.34;53.59
36520;BME280;40269;46.742;9.778;2023-02-18T07:58:11;86540.10;;;-1.88;52.43
36520;BME280;40269;46.742;9.778;2023-02-18T08:00:37;86539.63;;;-0.51;48.80
36520;BME280;40269;46.742;9.778;2023-02-18T08:03:05;86538.67;;;0.26;47.52
36520;BME280;40269;46.742;9.778;2023-02-18T08:05:31;86545.05;;;-1.18;50.19
36520;BME280;40269;46.742;9.778;2023-02-18T08:07:58;86541.50;;;-1.75;51.71
36520;BME280;40269;46.742;9.778;2023-02-18T08:10:25;86539.40;;;-0.46;48.66
36520;BME280;40269;46.742;9.778;2023-02-18T08:12:51;86539.31;;;-2.04;52.66
36520;BME280;40269;46.742;9.778;2023-02-18T08:15:18;86539.52;;;-1.26;51.52
36520;BME280;40269;46.742;9.778;2023-02-18T08:17:45;86537.91;;;-1.70;51.84
36520;BME280;40269;46.742;9.778;2023-02-18T08:20:12;86533.19;;;-2.61;53.21
36520;BME280;40269;46.742;9.778;2023-02-18T08:22:39;86534.11;;;-3.68;58.13
36520;BME280;40269;46.742;9.778;2023-02-18T08:25:06;86535.45;;;-3.56;57.98
36520;BME280;40269;46.742;9.778;2023-02-18T08:27:34;86534.50;;;-3.01;55.16
36520;BME280;40269;46.742;9.778;2023-02-18T08:30:01;86533.16;;;-1.67;53.52
36520;BME280;40269;46.742;9.778;2023-02-18T08:32:28;86532.48;;;0.31;48.61
36520;BME280;40269;46.742;9.778;2023-02-18T08:34:56;86533.19;;;-0.29;49.50
36520;BME280;40269;46.742;9.778;2023-02-18T08:37:23;86531.00;;;1.13;46.69
36520;BME280;40269;46.742;9.778;2023-02-18T08:39:50;86527.80;;;0.92;46.47
36520;BME280;40269;46.742;9.778;2023-02-18T08:42:17;86526.18;;;1.15;47.09
36520;BME280;40269;46.742;9.778;2023-02-18T08:44:44;86532.48;;;-1.22;51.38
36520;BME280;40269;46.742;9.778;2023-02-18T08:47:11;86527.67;;;0.74;48.60
36520;BME280;40269;46.742;9.778;2023-02-18T08:49:38;86526.86;;;0.32;48.52
36520;BME280;40269;46.742;9.778;2023-02-18T08:52:05;86526.66;;;0.57;48.64
36520;BME280;40269;46.742;9.778;2023-02-18T08:54:32;86520.48;;;1.53;47.57
36520;BME280;40269;46.742;9.778;2023-02-18T08:56:58;86516.86;;;2.42;45.98
36520;BME280;40269;46.742;9.778;2023-02-18T08:59:25;86512.42;;;3.85;42.23
36520;BME280;40269;46.742;9.778;2023-02-18T09:01:52;86513.77;;;4.08;42.02
36520;BME280;40269;46.742;9.778;2023-02-18T09:04:19;86507.95;;;4.57;42.34
36520;BME280;40269;46.742;9.778;2023-02-18T09:06:47;86505.71;;;4.78;42.08
36520;BME280;40269;46.742;9.778;2023-02-18T09:09:14;86503.88;;;2.31;46.68
36520;BME280;40269;46.742;9.778;2023-02-18T09:11:42;86501.72;;;1.25;47.91
36520;BME280;40269;46.742;9.778;2023-02-18T09:14:09;86498.95;;;2.15;45.98
36520;BME280;40269;46.742;9.778;2023-02-18T09:16:38;86496.23;;;3.90;43.59
36520;BME280;40269;46.742;9.778;2023-02-18T09:19:05;86491.19;;;5.08;41.14
36520;BME280;40269;46.742;9.778;2023-02-18T09:21:32;86491.74;;;3.66;43.14
36520;BME280;40269;46.742;9.778;2023-02-18T09:23:59;86487.75;;;5.41;41.30
36520;BME280;40269;46.742;9.778;2023-02-18T09:26:27;86483.85;;;5.85;41.44
36520;BME280;40269;46.742;9.778;2023-02-18T09:28:55;86480.56;;;5.96;39.56
36520;BME280;40269;46.742;9.778;2023-02-18T09:31:24;86480.83;;;6.52;38.09
36520;BME280;40269;46.742;9.778;2023-02-18T09:33:53;86478.62;;;7.47;38.13
36520;BME280;40269;46.742;9.778;2023-02-18T09:36:22;86479.54;;;6.80;38.69
36520;BME280;40269;46.742;9.778;2023-02-18T09:38:49;86476.31;;;8.78;34.96
36520;BME280;40269;46.742;9.778;2023-02-18T09:41:28;86475.26;;;8.01;36.10
36520;BME280;40269;46.742;9.778;2023-02-18T09:43:59;86475.13;;;8.67;35.68
36520;BME280;40269;46.742;9.778;2023-02-18T09:46:30;86469.86;;;7.55;37.51
36520;BME280;40269;46.742;9.778;2023-02-18T09:49:00;86473.42;;;9.80;34.28
36520;BME280;40269;46.742;9.778;2023-02-18T09:51:28;86471.49;;;8.34;36.80
36520;BME280;40269;46.742;9.778;2023-02-18T09:53:55;86467.33;;;7.54;35.48
36520;BME280;40269;46.742;9.778;2023-02-18T09:56:31;86465.06;;;9.10;35.06
36520;BME280;40269;46.742;9.778;2023-02-18T09:59:02;86460.01;;;11.01;32.23
36520;BME280;40269;46.742;9.778;2023-02-18T10:01:31;86464.49;;;7.72;35.89
36520;BME280;40269;46.742;9.778;2023-02-18T10:04:03;86467.60;;;7.74;35.84
36520;BME280;40269;46.742;9.778;2023-02-18T10:06:33;86465.26;;;8.32;34.54
36520;BME280;40269;46.742;9.778;2023-02-18T10:09:04;86467.99;;;10.26;33.21
36520;BME280;40269;46.742;9.778;2023-02-18T10:11:37;86464.11;;;10.60;31.40
36520;BME280;40269;46.742;9.778;2023-02-18T10:14:10;86466.70;;;10.02;31.44
36520;BME280;40269;46.742;9.778;2023-02-18T10:16:38;86467.49;;;10.39;32.53
36520;BME280;40269;46.742;9.778;2023-02-18T10:19:21;86465.37;;;7.35;36.57
36520;BME280;40269;46.742;9.778;2023-02-18T10:21:49;86461.54;;;8.60;34.83
36520;BME280;40269;46.742;9.778;2023-02-18T10:24:25;86463.62;;;8.69;34.73
36520;BME280;40269;46.742;9.778;2023-02-18T10:26:53;86464.27;;;9.92;34.23
36520;BME280;40269;46.742;9.778;2023-02-18T10:29:21;86455.25;;;11.72;31.33
36520;BME280;40269;46.742;9.778;2023-02-18T10:31:53;86454.07;;;11.40;29.91
36520;BME280;40269;46.742;9.778;2023-02-18T10:34:29;86449.58;;;10.38;30.95
36520;BME280;40269;46.742;9.778;2023-02-18T10:37:02;86449.86;;;10.69;31.21
36520;BME280;40269;46.742;9.778;2023-02-18T10:39:54;86445.85;;;9.83;31.99
36520;BME280;40269;46.742;9.778;2023-02-18T10:42:31;86440.34;;;10.28;33.22
36520;BME280;40269;46.742;9.778;2023-02-18T10:45:10;86439.80;;;11.44;30.22
36520;BME280;40269;46.742;9.778;2023-02-18T10:47:49;86438.18;;;13.07;28.37
36520;BME280;40269;46.742;9.778;2023-02-18T10:50:25;86438.76;;;13.33;28.12
36520;BME280;40269;46.742;9.778;2023-02-18T10:52:56;86435.46;;;15.48;26.34
36520;BME280;40269;46.742;9.778;2023-02-18T10:55:35;86431.55;;;14.43;26.09
36520;BME280;40269;46.742;9.778;2023-02-18T10:58:02;86429.31;;;14.93;26.46
36520;BME280;40269;46.742;9.778;2023-02-18T11:00:34;86423.13;;;14.23;26.08
36520;BME280;40269;46.742;9.778;2023-02-18T11:03:12;86423.62;;;14.35;24.37
36520;BME280;40269;46.742;9.778;2023-02-18T11:05:42;86420.41;;;13.56;25.97
36520;BME280;40269;46.742;9.778;2023-02-18T11:08:13;86417.38;;;15.55;24.43
36520;BME280;40269;46.742;9.778;2023-02-18T11:10:43;86414.17;;;16.04;24.47
36520;BME280;40269;46.742;9.778;2023-02-18T11:13:13;86413.85;;;18.73;23.66
36520;BME280;40269;46.742;9.778;2023-02-18T11:15:55;86407.98;;;17.66;23.04
36520;BME280;40269;46.742;9.778;2023-02-18T11:18:36;86406.71;;;18.07;22.14
36520;BME280;40269;46.742;9.778;2023-02-18T11:21:08;86404.45;;;18.79;22.18
36520;BME280;40269;46.742;9.778;2023-02-18T11:23:46;86401.47;;;19.72;21.15
36520;BME280;40269;46.742;9.778;2023-02-18T11:26:15;86397.32;;;18.50;21.15
36520;BME280;40269;46.742;9.778;2023-02-18T11:28:45;86392.90;;;19.87;20.68
36520;BME280;40269;46.742;9.778;2023-02-18T11:31:21;86388.48;;;19.29;20.89
36520;BME280;40269;46.742;9.778;2023-02-18T11:33:51;86384.32;;;19.87;19.70
36520;BME280;40269;46.742;9.778;2023-02-18T11:36:22;86378.91;;;20.92;18.67
36520;BME280;40269;46.742;9.778;2023-02-18T11:38:53;86374.25;;;20.89;18.13
36520;BME280;40269;46.742;9.778;2023-02-18T11:41:29;86371.03;;;20.96;18.27
36520;BME280;40269;46.742;9.778;2023-02-18T11:43:57;86368.82;;;21.19;20.24
36520;BME280;40269;46.742;9.778;2023-02-18T11:46:26;86368.89;;;19.04;21.08
36520;BME280;40269;46.742;9.778;2023-02-18T11:48:53;86361.08;;;21.44;18.72
36520;BME280;40269;46.742;9.778;2023-02-18T11:51:24;86359.29;;;21.18;16.79
36520;BME280;40269;46.742;9.778;2023-02-18T11:54:00;86356.88;;;16.48;20.83
36520;BME280;40269;46.742;9.778;2023-02-18T11:56:30;86358.17;;;17.56;19.65
36520;BME280;40269;46.742;9.778;2023-02-18T11:58:58;86356.63;;;17.76;20.04
36520;BME280;40269;46.742;9.778;2023-02-18T12:01:35;86354.06;;;17.28;20.40
36520;BME280;40269;46.742;9.778;2023-02-18T12:04:10;86350.96;;;18.67;19.28
36520;BME280;40269;46.742;9.778;2023-02-18T12:06:45;86352.11;;;12.12;24.78
36520;BME280;40269;46.742;9.778;2023-02-18T12:09:21;86347.83;;;10.26;28.54
36520;BME280;40269;46.742;9.778;2023-02-18T12:11:52;86349.26;;;12.92;27.04
36520;BME280;40269;46.742;9.778;2023-02-18T12:14:22;86346.30;;;14.72;26.49
36520;BME280;40269;46.742;9.778;2023-02-18T12:17:06;86343.75;;;17.13;23.33
36520;BME280;40269;46.742;9.778;2023-02-18T12:19:50;86342.85;;;18.70;22.92
36520;BME280;40269;46.742;9.778;2023-02-18T12:22:26;86339.88;;;19.71;21.01
36520;BME280;40269;46.742;9.778;2023-02-18T12:25:08;86334.06;;;20.72;19.93
36520;BME280;40269;46.742;9.778;2023-02-18T12:27:46;86332.24;;;20.90;19.17
36520;BME280;40269;46.742;9.778;2023-02-18T12:30:35;86327.40;;;22.47;17.25
36520;BME280;40269;46.742;9.778;2023-02-18T12:33:13;86323.01;;;22.15;18.08
36520;BME280;40269;46.742;9.778;2023-02-18T12:35:55;86315.47;;;22.05;17.38
36520;BME280;40269;46.742;9.778;2023-02-18T12:38:48;86316.25;;;20.77;17.97
36520;BME280;40269;46.742;9.778;2023-02-18T12:41:44;86312.14;;;21.70;17.20
36520;BME280;40269;46.742;9.778;2023-02-18T12:44:24;86306.35;;;20.62;17.77
36520;BME280;40269;46.742;9.778;2023-02-18T12:47:06;86304.92;;;21.26;17.87
36520;BME280;40269;46.742;9.778;2023-02-18T12:49:49;86301.43;;;19.31;19.14
36520;BME280;40269;46.742;9.778;2023-02-18T12:52:28;86306.21;;;18.91;20.57
36520;BME280;40269;46.742;9.778;2023-02-18T12:55:19;86304.34;;;20.23;18.70
36520;BME280;40269;46.742;9.778;2023-02-18T12:57:55;86305.59;;;17.55;20.88
36520;BME280;40269;46.742;9.778;2023-02-18T13:03:01;86304.18;;;17.49;20.08
36520;BME280;40269;46.742;9.778;2023-02-18T13:05:39;86299.90;;;15.28;21.82
36520;BME280;40269;46.742;9.778;2023-02-18T13:08:20;86297.59;;;17.83;22.57
36520;BME280;40269;46.742;9.778;2023-02-18T13:11:01;86295.78;;;17.87;19.77
36520;BME280;40269;46.742;9.778;2023-02-18T13:13:33;86295.22;;;17.37;20.68
36520;BME280;40269;46.742;9.778;2023-02-18T13:16:04;86295.19;;;17.10;21.80
36520;BME280;40269;46.742;9.778;2023-02-18T13:18:38;86294.00;;;18.24;20.04
36520;BME280;40269;46.742;9.778;2023-02-18T13:21:07;86295.18;;;19.02;19.49
36520;BME280;40269;46.742;9.778;2023-02-18T13:23:38;86290.46;;;19.76;19.12